sensor_id;sensor_type;location;lat;lon;timestamp;P1;durP1;ratioP1;P2;durP2;ratioP2
66559;SDS011;53413;49.878;8.142;2023-03-03T00:00:06;10.80;;;4.30;;
66559;SDS011;53413;49.878;8.142;2023-03-03T00:02:32;13.18;;;4.85;;
66559;SDS011;53413;49.878;8.142;2023-03-03T00:04:58;12.60;;;5.10;;
66559;SDS011;53413;49.878;8.142;2023-03-03T00:07:23;14.77;;;5.33;;
66559;SDS011;53413;49.878;8.142;2023-03-03T00:09:49;13.37;;;4.80;;
66559;SDS011;53413;49.878;8.142;2023-03-03T00:12:18;11.70;;;4.80;;
66559;SDS011;53413;49.878;8.142;2023-03-03T00:14:49;12.13;;;4.30;;
66559;SDS011;53413;49.878;8.142;2023-03-03T00:17:24;12.90;;;4.97;;
66559;SDS011;53413;49.878;8.142;2023-03-03T00:19:51;12.57;;;4.43;;
66559;SDS011;53413;49.878;8.142;2023-03-03T00:22:30;11.40;;;4.47;;
66559;SDS011;53413;49.878;8.142;2023-03-03T00:25:24;11.25;;;4.50;;
66559;SDS011;53413;49.878;8.142;2023-03-03T00:27:51;12.80;;;4.55;;
66559;SDS011;53413;49.878;8.142;2023-03-03T00:30:26;12.57;;;4.47;;
66559;SDS011;53413;49.878;8.142;2023-03-03T00:32:52;12.20;;;4.72;;
66559;SDS011;53413;49.878;8.142;2023-03-03T00:35:29;12.07;;;4.50;;
66559;SDS011;53413;49.878;8.142;2023-03-03T00:38:00;13.38;;;4.95;;
66559;SDS011;53413;49.878;8.142;2023-03-03T00:40:37;14.20;;;5.00;;
66559;SDS011;53413;49.878;8.142;2023-03-03T00:43:17;11.88;;;4.80;;
66559;SDS011;53413;49.878;8.142;2023-03-03T00:45:53;13.43;;;5.03;;
66559;SDS011;53413;49.878;8.142;2023-03-03T00:50:55;12.63;;;4.90;;
66559;SDS011;53413;49.878;8.142;2023-03-03T00:53:24;12.48;;;5.00;;
66559;SDS011;53413;49.878;8.142;2023-03-03T00:55:54;13.48;;;5.00;;
66559;SDS011;53413;49.878;8.142;2023-03-03T00:58:21;12.98;;;4.72;;
66559;SDS011;53413;49.878;8.142;2023-03-03T01:00:48;11.10;;;4.50;;
66559;SDS011;53413;49.878;8.142;2023-03-03T01:03:20;12.48;;;4.88;;
66559;SDS011;53413;49.878;8.142;2023-03-03T01:05:47;15.32;;;4.75;;
66559;SDS011;53413;49.878;8.142;2023-03-03T01:08:13;13.23;;;5.20;;
66559;SDS011;53413;49.878;8.142;2023-03-03T01:10:44;12.30;;;4.70;;
66559;SDS011;53413;49.878;8.142;2023-03-03T01:13:15;14.68;;;5.13;;
66559;SDS011;53413;49.878;8.142;2023-03-03T01:15:41;14.00;;;4.68;;
66559;SDS011;53413;49.878;8.142;2023-03-03T01:18:08;13.07;;;4.95;;
66559;SDS011;53413;49.878;8.142;2023-03-03T01:20:35;13.60;;;4.63;;
66559;SDS011;53413;49.878;8.142;2023-03-03T01:23:01;15.45;;;5.30;;
66559;SDS011;53413;49.878;8.142;2023-03-03T01:25:27;13.98;;;4.53;;
66559;SDS011;53413;49.878;8.142;2023-03-03T01:27:53;13.10;;;4.87;;
66559;SDS011;53413;49.878;8.142;2023-03-03T01:30:18;13.85;;;4.57;;
66559;SDS011;53413;49.878;8.142;2023-03-03T01:32:44;11.70;;;4.43;;
66559;SDS011;53413;49.878;8.142;2023-03-03T01:35:09;13.53;;;5.00;;
66559;SDS011;53413;49.878;8.142;2023-03-03T01:37:35;12.05;;;4.97;;
66559;SDS011;53413;49.878;8.142;2023-03-03T01:40:01;11.73;;;4.73;;
66559;SDS011;53413;49.878;8.142;2023-03-03T01:42:28;14.23;;;5.05;;
66559;SDS011;53413;49.878;8.142;2023-03-03T01:45:38;14.13;;;5.28;;
66559;SDS011;53413;49.878;8.142;2023-03-03T01:52:58;14.00;;;5.07;;
66559;SDS011;53413;49.878;8.142;2023-03-03T01:55:28;13.85;;;5.13;;
66559;SDS011;53413;49.878;8.142;2023-03-03T01:58:01;12.20;;;4.80;;
66559;SDS011;53413;49.878;8.142;2023-03-03T02:00:40;15.13;;;5.10;;
66559;SDS011;53413;49.878;8.142;2023-03-03T02:03:08;14.65;;;5.05;;
66559;SDS011;53413;49.878;8.142;2023-03-03T02:05:33;12.77;;;5.22;;
66559;SDS011;53413;49.878;8.142;2023-03-03T02:07:59;16.63;;;5.70;;
66559;SDS011;53413;49.878;8.142;2023-03-03T02:10:25;13.45;;;5.18;;
66559;SDS011;53413;49.878;8.142;2023-03-03T02:12:54;16.40;;;6.00;;
66559;SDS011;53413;49.878;8.142;2023-03-03T02:15:28;17.30;;;5.57;;
66559;SDS011;53413;49.878;8.142;2023-03-03T02:18:05;14.10;;;5.43;;
66559;SDS011;53413;49.878;8.142;2023-03-03T02:23:50;13.95;;;5.43;;
66559;SDS011;53413;49.878;8.142;2023-03-03T02:26:24;14.50;;;5.55;;
66559;SDS011;53413;49.878;8.142;2023-03-03T02:28:51;14.13;;;5.47;;
66559;SDS011;53413;49.878;8.142;2023-03-03T02:31:18;13.67;;;5.37;;
66559;SDS011;53413;49.878;8.142;2023-03-03T02:33:46;17.02;;;5.82;;
66559;SDS011;53413;49.878;8.142;2023-03-03T02:36:15;17.58;;;5.93;;
66559;SDS011;53413;49.878;8.142;2023-03-03T02:41:25;15.02;;;5.40;;
66559;SDS011;53413;49.878;8.142;2023-03-03T02:43:57;16.80;;;5.85;;
66559;SDS011;53413;49.878;8.142;2023-03-03T02:46:23;14.68;;;5.88;;
66559;SDS011;53413;49.878;8.142;2023-03-03T02:48:49;15.05;;;5.60;;
66559;SDS011;53413;49.878;8.142;2023-03-03T02:51:14;14.93;;;5.20;;
66559;SDS011;53413;49.878;8.142;2023-03-03T02:53:40;14.53;;;5.40;;
66559;SDS011;53413;49.878;8.142;2023-03-03T02:56:05;16.93;;;6.00;;
66559;SDS011;53413;49.878;8.142;2023-03-03T02:58:33;15.43;;;5.97;;
66559;SDS011;53413;49.878;8.142;2023-03-03T03:00:59;19.08;;;6.30;;
66559;SDS011;53413;49.878;8.142;2023-03-03T03:03:24;14.87;;;5.87;;
66559;SDS011;53413;49.878;8.142;2023-03-03T03:05:50;15.30;;;5.70;;
66559;SDS011;53413;49.878;8.142;2023-03-03T03:08:15;15.33;;;5.63;;
66559;SDS011;53413;49.878;8.142;2023-03-03T03:10:40;16.63;;;5.83;;
66559;SDS011;53413;49.878;8.142;2023-03-03T03:13:06;16.20;;;5.93;;
66559;SDS011;53413;49.878;8.142;2023-03-03T03:15:31;14.63;;;5.90;;
66559;SDS011;53413;49.878;8.142;2023-03-03T03:17:56;17.23;;;6.27;;
66559;SDS011;53413;49.878;8.142;2023-03-03T03:20:22;16.02;;;6.00;;
66559;SDS011;53413;49.878;8.142;2023-03-03T03:22:47;15.57;;;5.88;;
66559;SDS011;53413;49.878;8.142;2023-03-03T03:25:12;17.03;;;6.27;;
66559;SDS011;53413;49.878;8.142;2023-03-03T03:27:38;15.40;;;6.10;;
66559;SDS011;53413;49.878;8.142;2023-03-03T03:30:03;17.03;;;6.23;;
66559;SDS011;53413;49.878;8.142;2023-03-03T03:32:29;17.23;;;5.95;;
66559;SDS011;53413;49.878;8.142;2023-03-03T03:34:54;16.05;;;5.88;;
66559;SDS011;53413;49.878;8.142;2023-03-03T03:37:20;15.47;;;5.73;;
66559;SDS011;53413;49.878;8.142;2023-03-03T03:39:45;16.63;;;6.60;;
66559;SDS011;53413;49.878;8.142;2023-03-03T03:42:11;18.50;;;6.30;;
66559;SDS011;53413;49.878;8.142;2023-03-03T03:44:36;17.60;;;6.00;;
66559;SDS011;53413;49.878;8.142;2023-03-03T03:47:01;16.60;;;6.20;;
66559;SDS011;53413;49.878;8.142;2023-03-03T03:49:27;16.17;;;6.33;;
66559;SDS011;53413;49.878;8.142;2023-03-03T03:51:52;14.37;;;5.73;;
66559;SDS011;53413;49.878;8.142;2023-03-03T03:54:17;16.33;;;6.07;;
66559;SDS011;53413;49.878;8.142;2023-03-03T03:56:43;15.93;;;5.57;;
66559;SDS011;53413;49.878;8.142;2023-03-03T03:59:08;15.83;;;5.93;;
66559;SDS011;53413;49.878;8.142;2023-03-03T04:01:34;16.15;;;5.78;;
66559;SDS011;53413;49.878;8.142;2023-03-03T04:03:59;15.82;;;6.25;;
66559;SDS011;53413;49.878;8.142;2023-03-03T04:06:24;15.07;;;5.87;;
66559;SDS011;53413;49.878;8.142;2023-03-03T04:08:50;17.87;;;5.93;;
66559;SDS011;53413;49.878;8.142;2023-03-03T04:11:15;18.53;;;6.20;;
66559;SDS011;53413;49.878;8.142;2023-03-03T04:13:41;17.93;;;6.53;;
66559;SDS011;53413;49.878;8.142;2023-03-03T04:16:06;18.80;;;6.40;;
66559;SDS011;53413;49.878;8.142;2023-03-03T04:18:32;18.23;;;6.53;;
66559;SDS011;53413;49.878;8.142;2023-03-03T04:20:58;23.08;;;8.55;;
66559;SDS011;53413;49.878;8.142;2023-03-03T04:23:23;21.73;;;7.47;;
66559;SDS011;53413;49.878;8.142;2023-03-03T04:25:49;20.50;;;7.07;;
66559;SDS011;53413;49.878;8.142;2023-03-03T04:28:14;17.70;;;6.70;;
66559;SDS011;53413;49.878;8.142;2023-03-03T04:30:41;19.15;;;6.93;;
66559;SDS011;53413;49.878;8.142;2023-03-03T04:33:07;16.55;;;6.38;;
66559;SDS011;53413;49.878;8.142;2023-03-03T04:35:33;16.73;;;6.70;;
66559;SDS011;53413;49.878;8.142;2023-03-03T04:37:58;19.20;;;6.77;;
66559;SDS011;53413;49.878;8.142;2023-03-03T04:40:24;17.63;;;6.20;;
66559;SDS011;53413;49.878;8.142;2023-03-03T04:42:49;19.10;;;6.80;;
66559;SDS011;53413;49.878;8.142;2023-03-03T04:45:14;16.02;;;6.25;;
66559;SDS011;53413;49.878;8.142;2023-03-03T04:47:40;18.53;;;6.57;;
66559;SDS011;53413;49.878;8.142;2023-03-03T04:50:06;17.70;;;6.43;;
66559;SDS011;53413;49.878;8.142;2023-03-03T04:52:32;17.35;;;6.50;;
66559;SDS011;53413;49.878;8.142;2023-03-03T04:54:58;18.70;;;6.50;;
66559;SDS011;53413;49.878;8.142;2023-03-03T04:57:23;19.23;;;6.72;;
66559;SDS011;53413;49.878;8.142;2023-03-03T04:59:48;22.07;;;6.73;;
66559;SDS011;53413;49.878;8.142;2023-03-03T05:02:14;17.10;;;6.73;;
66559;SDS011;53413;49.878;8.142;2023-03-03T05:04:39;17.90;;;6.40;;
66559;SDS011;53413;49.878;8.142;2023-03-03T05:07:04;17.27;;;6.57;;
66559;SDS011;53413;49.878;8.142;2023-03-03T05:09:30;18.40;;;6.40;;
66559;SDS011;53413;49.878;8.142;2023-03-03T05:11:55;18.83;;;7.20;;
66559;SDS011;53413;49.878;8.142;2023-03-03T05:14:20;22.03;;;7.80;;
66559;SDS011;53413;49.878;8.142;2023-03-03T05:16:46;20.85;;;7.65;;
66559;SDS011;53413;49.878;8.142;2023-03-03T05:19:11;20.33;;;7.40;;
66559;SDS011;53413;49.878;8.142;2023-03-03T05:21:37;21.73;;;7.40;;
66559;SDS011;53413;49.878;8.142;2023-03-03T05:24:06;20.23;;;7.45;;
66559;SDS011;53413;49.878;8.142;2023-03-03T05:26:35;20.70;;;8.27;;
66559;SDS011;53413;49.878;8.142;2023-03-03T05:29:00;20.50;;;7.90;;
66559;SDS011;53413;49.878;8.142;2023-03-03T05:31:26;21.93;;;8.20;;
66559;SDS011;53413;49.878;8.142;2023-03-03T05:33:52;19.83;;;7.33;;
66559;SDS011;53413;49.878;8.142;2023-03-03T05:36:17;19.05;;;6.93;;
66559;SDS011;53413;49.878;8.142;2023-03-03T05:38:43;17.80;;;6.87;;
66559;SDS011;53413;49.878;8.142;2023-03-03T05:41:08;19.25;;;7.40;;
66559;SDS011;53413;49.878;8.142;2023-03-03T05:43:34;19.95;;;7.22;;
66559;SDS011;53413;49.878;8.142;2023-03-03T05:45:59;19.40;;;6.97;;
66559;SDS011;53413;49.878;8.142;2023-03-03T05:48:25;19.37;;;7.30;;
66559;SDS011;53413;49.878;8.142;2023-03-03T05:50:50;19.38;;;6.90;;
66559;SDS011;53413;49.878;8.142;2023-03-03T05:53:16;21.83;;;7.40;;
66559;SDS011;53413;49.878;8.142;2023-03-03T05:55:41;22.50;;;7.67;;
66559;SDS011;53413;49.878;8.142;2023-03-03T05:58:07;23.03;;;8.20;;
66559;SDS011;53413;49.878;8.142;2023-03-03T06:00:32;20.77;;;7.83;;
66559;SDS011;53413;49.878;8.142;2023-03-03T06:02:57;22.35;;;7.43;;
66559;SDS011;53413;49.878;8.142;2023-03-03T06:05:23;24.95;;;8.23;;
66559;SDS011;53413;49.878;8.142;2023-03-03T06:07:49;22.75;;;7.85;;
66559;SDS011;53413;49.878;8.142;2023-03-03T06:10:14;22.67;;;7.97;;
66559;SDS011;53413;49.878;8.142;2023-03-03T06:12:40;19.50;;;7.30;;
66559;SDS011;53413;49.878;8.142;2023-03-03T06:15:06;24.10;;;7.78;;
66559;SDS011;53413;49.878;8.142;2023-03-03T06:17:32;22.50;;;7.93;;
66559;SDS011;53413;49.878;8.142;2023-03-03T06:19:58;22.00;;;7.93;;
66559;SDS011;53413;49.878;8.142;2023-03-03T06:22:23;22.80;;;8.40;;
66559;SDS011;53413;49.878;8.142;2023-03-03T06:24:48;22.97;;;8.50;;
66559;SDS011;53413;49.878;8.142;2023-03-03T06:27:14;21.67;;;8.10;;
66559;SDS011;53413;49.878;8.142;2023-03-03T06:29:39;26.87;;;8.53;;
66559;SDS011;53413;49.878;8.142;2023-03-03T06:32:04;24.55;;;9.75;;
66559;SDS011;53413;49.878;8.142;2023-03-03T06:34:30;22.90;;;8.87;;
66559;SDS011;53413;49.878;8.142;2023-03-03T06:36:55;22.60;;;8.83;;
66559;SDS011;53413;49.878;8.142;2023-03-03T06:39:21;23.03;;;8.53;;
66559;SDS011;53413;49.878;8.142;2023-03-03T06:41:46;25.35;;;9.30;;
66559;SDS011;53413;49.878;8.142;2023-03-03T06:44:12;25.73;;;9.63;;
66559;SDS011;53413;49.878;8.142;2023-03-03T06:46:37;24.63;;;9.20;;
66559;SDS011;53413;49.878;8.142;2023-03-03T06:49:02;22.23;;;8.30;;
66559;SDS011;53413;49.878;8.142;2023-03-03T06:51:29;21.43;;;7.90;;
66559;SDS011;53413;49.878;8.142;2023-03-03T06:53:59;20.77;;;8.10;;
66559;SDS011;53413;49.878;8.142;2023-03-03T06:56:30;23.40;;;8.07;;
66559;SDS011;53413;49.878;8.142;2023-03-03T06:59:00;20.25;;;8.00;;
66559;SDS011;53413;49.878;8.142;2023-03-03T07:01:28;20.50;;;7.77;;
66559;SDS011;53413;49.878;8.142;2023-03-03T07:03:58;23.75;;;8.27;;
66559;SDS011;53413;49.878;8.142;2023-03-03T07:06:24;22.63;;;8.50;;
66559;SDS011;53413;49.878;8.142;2023-03-03T07:08:52;21.65;;;8.38;;
66559;SDS011;53413;49.878;8.142;2023-03-03T07:11:19;21.55;;;8.07;;
66559;SDS011;53413;49.878;8.142;2023-03-03T07:13:50;20.67;;;8.35;;
66559;SDS011;53413;49.878;8.142;2023-03-03T07:16:19;21.20;;;8.80;;
66559;SDS011;53413;49.878;8.142;2023-03-03T07:18:51;20.75;;;8.10;;
66559;SDS011;53413;49.878;8.142;2023-03-03T07:21:25;23.63;;;8.65;;
66559;SDS011;53413;49.878;8.142;2023-03-03T07:23:57;21.40;;;8.98;;
66559;SDS011;53413;49.878;8.142;2023-03-03T07:26:26;23.52;;;9.07;;
66559;SDS011;53413;49.878;8.142;2023-03-03T07:29:00;22.87;;;9.63;;
66559;SDS011;53413;49.878;8.142;2023-03-03T07:31:38;22.25;;;8.63;;
66559;SDS011;53413;49.878;8.142;2023-03-03T07:36:57;21.73;;;8.80;;
66559;SDS011;53413;49.878;8.142;2023-03-03T07:39:38;24.00;;;9.85;;
66559;SDS011;53413;49.878;8.142;2023-03-03T07:44:38;28.83;;;12.50;;
66559;SDS011;53413;49.878;8.142;2023-03-03T07:47:21;28.13;;;12.68;;
66559;SDS011;53413;49.878;8.142;2023-03-03T07:50:15;30.80;;;12.93;;
66559;SDS011;53413;49.878;8.142;2023-03-03T07:55:29;32.85;;;15.15;;
66559;SDS011;53413;49.878;8.142;2023-03-03T07:58:05;32.33;;;15.38;;
66559;SDS011;53413;49.878;8.142;2023-03-03T08:05:43;33.47;;;16.17;;
66559;SDS011;53413;49.878;8.142;2023-03-03T08:08:26;34.95;;;15.98;;
66559;SDS011;53413;49.878;8.142;2023-03-03T08:10:54;36.92;;;16.90;;
66559;SDS011;53413;49.878;8.142;2023-03-03T08:13:27;36.78;;;17.30;;
66559;SDS011;53413;49.878;8.142;2023-03-03T08:16:00;35.13;;;17.10;;
66559;SDS011;53413;49.878;8.142;2023-03-03T08:18:46;36.00;;;17.40;;
66559;SDS011;53413;49.878;8.142;2023-03-03T08:21:25;34.45;;;17.08;;
66559;SDS011;53413;49.878;8.142;2023-03-03T08:23:51;34.60;;;17.60;;
66559;SDS011;53413;49.878;8.142;2023-03-03T08:26:18;34.88;;;17.95;;
66559;SDS011;53413;49.878;8.142;2023-03-03T08:28:44;33.37;;;17.03;;
66559;SDS011;53413;49.878;8.142;2023-03-03T08:31:10;34.97;;;17.38;;
66559;SDS011;53413;49.878;8.142;2023-03-03T08:33:36;35.85;;;18.80;;
66559;SDS011;53413;49.878;8.142;2023-03-03T08:36:02;33.97;;;18.37;;
66559;SDS011;53413;49.878;8.142;2023-03-03T08:38:27;35.40;;;18.52;;
66559;SDS011;53413;49.878;8.142;2023-03-03T08:40:53;34.37;;;18.13;;
66559;SDS011;53413;49.878;8.142;2023-03-03T08:43:18;34.90;;;18.47;;
66559;SDS011;53413;49.878;8.142;2023-03-03T08:45:47;36.10;;;18.58;;
66559;SDS011;53413;49.878;8.142;2023-03-03T08:48:14;32.75;;;17.50;;
66559;SDS011;53413;49.878;8.142;2023-03-03T08:50:40;34.13;;;18.07;;
66559;SDS011;53413;49.878;8.142;2023-03-03T08:53:06;34.20;;;18.33;;
66559;SDS011;53413;49.878;8.142;2023-03-03T08:55:32;33.67;;;18.17;;
66559;SDS011;53413;49.878;8.142;2023-03-03T08:57:57;34.10;;;18.17;;
66559;SDS011;53413;49.878;8.142;2023-03-03T09:00:23;34.40;;;18.40;;
66559;SDS011;53413;49.878;8.142;2023-03-03T09:02:49;34.45;;;19.17;;
66559;SDS011;53413;49.878;8.142;2023-03-03T09:05:16;33.77;;;18.60;;
66559;SDS011;53413;49.878;8.142;2023-03-03T09:07:42;35.30;;;19.08;;
66559;SDS011;53413;49.878;8.142;2023-03-03T09:10:10;33.97;;;18.40;;
66559;SDS011;53413;49.878;8.142;2023-03-03T09:12:39;33.88;;;18.38;;
66559;SDS011;53413;49.878;8.142;2023-03-03T09:15:12;33.70;;;18.15;;
66559;SDS011;53413;49.878;8.142;2023-03-03T09:17:47;31.93;;;17.83;;
66559;SDS011;53413;49.878;8.142;2023-03-03T09:22:41;32.60;;;18.35;;
66559;SDS011;53413;49.878;8.142;2023-03-03T09:28:01;31.45;;;18.15;;
66559;SDS011;53413;49.878;8.142;2023-03-03T09:30:37;35.17;;;18.27;;
66559;SDS011;53413;49.878;8.142;2023-03-03T09:38:49;33.08;;;17.58;;
66559;SDS011;53413;49.878;8.142;2023-03-03T09:57:23;32.10;;;18.27;;
66559;SDS011;53413;49.878;8.142;2023-03-03T10:10:52;32.20;;;17.75;;
66559;SDS011;53413;49.878;8.142;2023-03-03T10:18:51;33.53;;;17.38;;
66559;SDS011;53413;49.878;8.142;2023-03-03T10:21:35;36.03;;;17.20;;
66559;SDS011;53413;49.878;8.142;2023-03-03T10:29:50;32.67;;;16.65;;
66559;SDS011;53413;49.878;8.142;2023-03-03T10:33:04;37.50;;;17.60;;
66559;SDS011;53413;49.878;8.142;2023-03-03T10:35:29;36.23;;;16.57;;
66559;SDS011;53413;49.878;8.142;2023-03-03T10:45:48;38.15;;;16.75;;
66559;SDS011;53413;49.878;8.142;2023-03-03T10:48:56;37.83;;;16.23;;
66559;SDS011;53413;49.878;8.142;2023-03-03T10:57:23;37.33;;;15.73;;
66559;SDS011;53413;49.878;8.142;2023-03-03T11:07:50;37.42;;;15.88;;
66559;SDS011;53413;49.878;8.142;2023-03-03T11:16:13;33.80;;;15.50;;
66559;SDS011;53413;49.878;8.142;2023-03-03T11:22:00;35.33;;;15.25;;
66559;SDS011;53413;49.878;8.142;2023-03-03T11:35:48;36.55;;;14.73;;
66559;SDS011;53413;49.878;8.142;2023-03-03T11:40:56;37.00;;;14.23;;
66559;SDS011;53413;49.878;8.142;2023-03-03T11:44:01;37.13;;;15.37;;
66559;SDS011;53413;49.878;8.142;2023-03-03T11:49:39;34.70;;;14.32;;
66559;SDS011;53413;49.878;8.142;2023-03-03T11:57:35;36.83;;;14.90;;
66559;SDS011;53413;49.878;8.142;2023-03-03T12:03:12;33.83;;;14.23;;
66559;SDS011;53413;49.878;8.142;2023-03-03T12:13:52;29.60;;;13.00;;
66559;SDS011;53413;49.878;8.142;2023-03-03T12:16:28;33.55;;;13.77;;
66559;SDS011;53413;49.878;8.142;2023-03-03T12:19:08;30.83;;;13.73;;
66559;SDS011;53413;49.878;8.142;2023-03-03T12:21:49;34.35;;;13.95;;
66559;SDS011;53413;49.878;8.142;2023-03-03T12:26:53;31.30;;;12.98;;
66559;SDS011;53413;49.878;8.142;2023-03-03T12:34:31;30.27;;;12.55;;
66559;SDS011;53413;49.878;8.142;2023-03-03T12:39:42;29.27;;;12.85;;
66559;SDS011;53413;49.878;8.142;2023-03-03T12:45:13;29.88;;;12.65;;
66559;SDS011;53413;49.878;8.142;2023-03-03T12:48:08;29.45;;;11.98;;
66559;SDS011;53413;49.878;8.142;2023-03-03T12:50:43;29.70;;;12.27;;
66559;SDS011;53413;49.878;8.142;2023-03-03T12:56:17;29.55;;;11.85;;
66559;SDS011;53413;49.878;8.142;2023-03-03T13:10:23;26.95;;;10.90;;
66559;SDS011;53413;49.878;8.142;2023-03-03T13:13:05;29.48;;;11.98;;
66559;SDS011;53413;49.878;8.142;2023-03-03T13:15:43;28.23;;;11.95;;
66559;SDS011;53413;49.878;8.142;2023-03-03T13:26:34;27.08;;;11.75;;
66559;SDS011;53413;49.878;8.142;2023-03-03T13:29:20;26.73;;;11.10;;
66559;SDS011;53413;49.878;8.142;2023-03-03T13:31:56;27.27;;;11.50;;
66559;SDS011;53413;49.878;8.142;2023-03-03T13:37:06;26.85;;;10.65;;
66559;SDS011;53413;49.878;8.142;2023-03-03T13:39:57;25.85;;;10.95;;
66559;SDS011;53413;49.878;8.142;2023-03-03T13:42:33;25.77;;;10.45;;
66559;SDS011;53413;49.878;8.142;2023-03-03T13:45:17;25.23;;;10.47;;
66559;SDS011;53413;49.878;8.142;2023-03-03T13:47:47;26.52;;;10.73;;
66559;SDS011;53413;49.878;8.142;2023-03-03T13:50:22;24.95;;;10.40;;
66559;SDS011;53413;49.878;8.142;2023-03-03T13:58:14;23.63;;;10.33;;
66559;SDS011;53413;49.878;8.142;2023-03-03T14:03:44;23.52;;;10.05;;
66559;SDS011;53413;49.878;8.142;2023-03-03T14:06:25;24.13;;;9.77;;
66559;SDS011;53413;49.878;8.142;2023-03-03T14:11:46;22.13;;;9.50;;
66559;SDS011;53413;49.878;8.142;2023-03-03T14:14:36;22.50;;;9.00;;
66559;SDS011;53413;49.878;8.142;2023-03-03T14:25:25;24.70;;;9.83;;
66559;SDS011;53413;49.878;8.142;2023-03-03T14:28:01;22.02;;;9.15;;
66559;SDS011;53413;49.878;8.142;2023-03-03T14:30:37;24.65;;;10.05;;
66559;SDS011;53413;49.878;8.142;2023-03-03T14:38:10;23.95;;;9.85;;
66559;SDS011;53413;49.878;8.142;2023-03-03T14:48:53;21.13;;;8.88;;
66559;SDS011;53413;49.878;8.142;2023-03-03T14:51:41;23.17;;;9.30;;
66559;SDS011;53413;49.878;8.142;2023-03-03T14:54:20;21.15;;;8.77;;
66559;SDS011;53413;49.878;8.142;2023-03-03T14:57:09;20.13;;;8.77;;
66559;SDS011;53413;49.878;8.142;2023-03-03T14:59:39;19.47;;;8.37;;
66559;SDS011;53413;49.878;8.142;2023-03-03T15:04:44;20.93;;;9.00;;
66559;SDS011;53413;49.878;8.142;2023-03-03T15:09:51;23.00;;;8.43;;
66559;SDS011;53413;49.878;8.142;2023-03-03T15:23:06;19.20;;;7.65;;
66559;SDS011;53413;49.878;8.142;2023-03-03T15:25:56;18.73;;;7.35;;
66559;SDS011;53413;49.878;8.142;2023-03-03T15:51:49;15.20;;;6.03;;
66559;SDS011;53413;49.878;8.142;2023-03-03T15:54:44;14.63;;;5.60;;
66559;SDS011;53413;49.878;8.142;2023-03-03T16:00:03;12.90;;;5.38;;
66559;SDS011;53413;49.878;8.142;2023-03-03T16:05:54;13.55;;;5.40;;
66559;SDS011;53413;49.878;8.142;2023-03-03T16:08:28;12.30;;;5.18;;
66559;SDS011;53413;49.878;8.142;2023-03-03T16:11:07;12.40;;;5.00;;
66559;SDS011;53413;49.878;8.142;2023-03-03T16:33:03;9.60;;;3.53;;
66559;SDS011;53413;49.878;8.142;2023-03-03T16:35:41;8.23;;;3.33;;
66559;SDS011;53413;49.878;8.142;2023-03-03T16:38:22;8.97;;;3.70;;
66559;SDS011;53413;49.878;8.142;2023-03-03T16:40:56;8.02;;;3.30;;
66559;SDS011;53413;49.878;8.142;2023-03-03T16:49:02;8.02;;;3.17;;
66559;SDS011;53413;49.878;8.142;2023-03-03T16:57:17;9.07;;;3.53;;
66559;SDS011;53413;49.878;8.142;2023-03-03T17:07:54;8.95;;;3.42;;
66559;SDS011;53413;49.878;8.142;2023-03-03T17:21:23;19.85;;;7.57;;
66559;SDS011;53413;49.878;8.142;2023-03-03T17:27:16;30.73;;;11.37;;
66559;SDS011;53413;49.878;8.142;2023-03-03T17:46:35;40.40;;;14.10;;
66559;SDS011;53413;49.878;8.142;2023-03-03T17:52:05;38.40;;;13.45;;
66559;SDS011;53413;49.878;8.142;2023-03-03T17:55:44;39.67;;;13.73;;
66559;SDS011;53413;49.878;8.142;2023-03-03T18:25:56;46.30;;;15.33;;
66559;SDS011;53413;49.878;8.142;2023-03-03T18:28:45;44.15;;;14.60;;
66559;SDS011;53413;49.878;8.142;2023-03-03T18:31:18;43.53;;;14.85;;
66559;SDS011;53413;49.878;8.142;2023-03-03T18:36:52;40.53;;;13.98;;
66559;SDS011;53413;49.878;8.142;2023-03-03T18:44:39;39.33;;;13.52;;
66559;SDS011;53413;49.878;8.142;2023-03-03T18:47:10;43.40;;;14.68;;
66559;SDS011;53413;49.878;8.142;2023-03-03T18:52:19;41.50;;;14.03;;
66559;SDS011;53413;49.878;8.142;2023-03-03T18:58:00;39.20;;;13.52;;
66559;SDS011;53413;49.878;8.142;2023-03-03T19:00:50;41.15;;;13.13;;
66559;SDS011;53413;49.878;8.142;2023-03-03T19:03:26;42.88;;;13.15;;
66559;SDS011;53413;49.878;8.142;2023-03-03T19:05:54;40.83;;;13.47;;
66559;SDS011;53413;49.878;8.142;2023-03-03T19:16:10;44.25;;;14.07;;
66559;SDS011;53413;49.878;8.142;2023-03-03T19:21:27;41.17;;;13.48;;
66559;SDS011;53413;49.878;8.142;2023-03-03T19:23:59;46.45;;;15.50;;
66559;SDS011;53413;49.878;8.142;2023-03-03T19:35:17;45.70;;;14.48;;
66559;SDS011;53413;49.878;8.142;2023-03-03T19:41:01;44.78;;;13.70;;
66559;SDS011;53413;49.878;8.142;2023-03-03T19:43:44;48.88;;;14.70;;
66559;SDS011;53413;49.878;8.142;2023-03-03T19:49:26;72.65;;;21.92;;
66559;SDS011;53413;49.878;8.142;2023-03-03T19:57:43;52.33;;;16.33;;
66559;SDS011;53413;49.878;8.142;2023-03-03T20:00:29;51.05;;;14.70;;
66559;SDS011;53413;49.878;8.142;2023-03-03T20:08:40;52.67;;;15.57;;
66559;SDS011;53413;49.878;8.142;2023-03-03T20:17:00;52.53;;;15.40;;
66559;SDS011;53413;49.878;8.142;2023-03-03T20:22:59;54.05;;;16.33;;
66559;SDS011;53413;49.878;8.142;2023-03-03T20:25:42;54.15;;;15.57;;
66559;SDS011;53413;49.878;8.142;2023-03-03T20:31:18;53.27;;;15.07;;
66559;SDS011;53413;49.878;8.142;2023-03-03T20:36:54;53.85;;;16.17;;
66559;SDS011;53413;49.878;8.142;2023-03-03T20:39:33;52.17;;;15.80;;
66559;SDS011;53413;49.878;8.142;2023-03-03T20:44:43;52.90;;;15.33;;
66559;SDS011;53413;49.878;8.142;2023-03-03T20:59:06;56.87;;;15.70;;
66559;SDS011;53413;49.878;8.142;2023-03-03T21:04:32;58.33;;;16.00;;
66559;SDS011;53413;49.878;8.142;2023-03-03T21:07:00;59.58;;;15.13;;
66559;SDS011;53413;49.878;8.142;2023-03-03T21:09:28;64.88;;;16.75;;
66559;SDS011;53413;49.878;8.142;2023-03-03T21:11:56;58.40;;;15.80;;
66559;SDS011;53413;49.878;8.142;2023-03-03T21:14:25;61.17;;;15.68;;
66559;SDS011;53413;49.878;8.142;2023-03-03T21:16:56;54.47;;;14.98;;
66559;SDS011;53413;49.878;8.142;2023-03-03T21:19:41;58.70;;;15.77;;
66559;SDS011;53413;49.878;8.142;2023-03-03T21:22:08;57.83;;;15.80;;
66559;SDS011;53413;49.878;8.142;2023-03-03T21:24:47;62.95;;;16.25;;
66559;SDS011;53413;49.878;8.142;2023-03-03T21:27:27;53.03;;;14.77;;
66559;SDS011;53413;49.878;8.142;2023-03-03T21:30:05;64.32;;;17.13;;
66559;SDS011;53413;49.878;8.142;2023-03-03T21:32:35;58.60;;;16.05;;
66559;SDS011;53413;49.878;8.142;2023-03-03T21:40:13;66.23;;;16.90;;
66559;SDS011;53413;49.878;8.142;2023-03-03T21:42:41;62.03;;;16.05;;
66559;SDS011;53413;49.878;8.142;2023-03-03T21:45:08;64.75;;;16.70;;
66559;SDS011;53413;49.878;8.142;2023-03-03T21:47:39;65.40;;;16.10;;
66559;SDS011;53413;49.878;8.142;2023-03-03T21:50:05;64.83;;;15.53;;
66559;SDS011;53413;49.878;8.142;2023-03-03T21:52:31;67.97;;;16.48;;
66559;SDS011;53413;49.878;8.142;2023-03-03T21:54:56;67.70;;;16.50;;
66559;SDS011;53413;49.878;8.142;2023-03-03T21:57:22;66.20;;;17.17;;
66559;SDS011;53413;49.878;8.142;2023-03-03T21:59:47;68.47;;;16.60;;
66559;SDS011;53413;49.878;8.142;2023-03-03T22:02:12;61.17;;;15.70;;
66559;SDS011;53413;49.878;8.142;2023-03-03T22:04:38;67.07;;;16.23;;
66559;SDS011;53413;49.878;8.142;2023-03-03T22:07:03;63.90;;;17.17;;
66559;SDS011;53413;49.878;8.142;2023-03-03T22:09:28;62.30;;;16.33;;
66559;SDS011;53413;49.878;8.142;2023-03-03T22:11:54;59.78;;;15.48;;
66559;SDS011;53413;49.878;8.142;2023-03-03T22:14:19;66.83;;;16.80;;